西安 の空港の天気 - METARとTAF

西安咸陽国際空港 ( ZLXY / XIY ) - 中国 陝西省西安市
飛行場実況気象(Metar)
観測時間08/23 00:00 CST (08/22 16:00 UTC)
風向・風速不定 1m/s
視程2500m
天気現象もや
全天の4割程度の雲 雲底高度 910m
全天を覆う雲 雲底高度 1520m
気温23℃
湿度100%
気圧1014hPa
METARZLXY 221600Z VRB01MPS 2500 BR SCT030 OVC050 23/23 Q1014 NOSIG
過去の天気等 Google飛行場航空写真 Wunderground天気予報

過去48時間のMETAR

飛行場予報(TAF)
発表時間: 8/22 17:05 CST (8/22 09:05 UTC)
予報対象時間: 22日20時 CST ~ 23日20時 CST
風向・風速東北東 3m/s
視程3000m
天気現象もや
なし
TAF ZLXY 220905Z 2212/2312 06003MPS 3000 BR NSC TX29/2308Z TN22/2222Z